sensor_id;sensor_type;location;lat;lon;timestamp;pressure;altitude;pressure_sealevel;temperature
68939;BMP180;59064;45.294;11.816;2024-01-07T00:01:02;99513.80;;;7.50
68939;BMP180;59064;45.294;11.816;2024-01-07T00:03:27;99511.40;;;7.50
68939;BMP180;59064;45.294;11.816;2024-01-07T00:05:53;99515.20;;;7.50
68939;BMP180;59064;45.294;11.816;2024-01-07T00:08:19;99516.20;;;7.50
68939;BMP180;59064;45.294;11.816;2024-01-07T00:10:46;99517.20;;;7.50
68939;BMP180;59064;45.294;11.816;2024-01-07T00:13:11;99518.80;;;7.50
68939;BMP180;59064;45.294;11.816;2024-01-07T00:15:37;99523.00;;;7.42
68939;BMP180;59064;45.294;11.816;2024-01-07T00:18:02;99521.40;;;7.40
68939;BMP180;59064;45.294;11.816;2024-01-07T00:20:28;99518.60;;;7.40
68939;BMP180;59064;45.294;11.816;2024-01-07T00:22:53;99517.60;;;7.40
68939;BMP180;59064;45.294;11.816;2024-01-07T00:25:19;99519.80;;;7.40
68939;BMP180;59064;45.294;11.816;2024-01-07T00:27:44;99517.00;;;7.40
68939;BMP180;59064;45.294;11.816;2024-01-07T00:30:11;99517.00;;;7.40
68939;BMP180;59064;45.294;11.816;2024-01-07T00:32:36;99519.80;;;7.40
68939;BMP180;59064;45.294;11.816;2024-01-07T00:35:02;99524.00;;;7.40
68939;BMP180;59064;45.294;11.816;2024-01-07T00:37:28;99520.00;;;7.40
68939;BMP180;59064;45.294;11.816;2024-01-07T00:39:54;99518.80;;;7.40
68939;BMP180;59064;45.294;11.816;2024-01-07T00:42:19;99521.80;;;7.40
68939;BMP180;59064;45.294;11.816;2024-01-07T00:44:45;99516.60;;;7.40
68939;BMP180;59064;45.294;11.816;2024-01-07T00:47:10;99520.80;;;7.40
68939;BMP180;59064;45.294;11.816;2024-01-07T00:49:36;99522.20;;;7.36
68939;BMP180;59064;45.294;11.816;2024-01-07T00:52:01;99523.20;;;7.36
68939;BMP180;59064;45.294;11.816;2024-01-07T00:54:27;99532.20;;;7.30
68939;BMP180;59064;45.294;11.816;2024-01-07T00:56:52;99529.00;;;7.30
68939;BMP180;59064;45.294;11.816;2024-01-07T00:59:18;99524.00;;;7.30
68939;BMP180;59064;45.294;11.816;2024-01-07T01:01:43;99524.20;;;7.30
68939;BMP180;59064;45.294;11.816;2024-01-07T01:04:09;99524.40;;;7.30
68939;BMP180;59064;45.294;11.816;2024-01-07T01:06:34;99527.20;;;7.30
68939;BMP180;59064;45.294;11.816;2024-01-07T01:08:59;99531.00;;;7.30
68939;BMP180;59064;45.294;11.816;2024-01-07T01:11:25;99534.00;;;7.30
68939;BMP180;59064;45.294;11.816;2024-01-07T01:13:50;99535.40;;;7.30
68939;BMP180;59064;45.294;11.816;2024-01-07T01:16:16;99536.00;;;7.30
68939;BMP180;59064;45.294;11.816;2024-01-07T01:18:41;99536.60;;;7.30
68939;BMP180;59064;45.294;11.816;2024-01-07T01:21:07;99531.60;;;7.30
68939;BMP180;59064;45.294;11.816;2024-01-07T01:23:33;99532.80;;;7.30
68939;BMP180;59064;45.294;11.816;2024-01-07T01:25:58;99532.20;;;7.30
68939;BMP180;59064;45.294;11.816;2024-01-07T01:28:24;99535.00;;;7.26
68939;BMP180;59064;45.294;11.816;2024-01-07T01:30:49;99534.00;;;7.20
68939;BMP180;59064;45.294;11.816;2024-01-07T01:33:15;99534.40;;;7.20
68939;BMP180;59064;45.294;11.816;2024-01-07T01:35:40;99534.20;;;7.20
68939;BMP180;59064;45.294;11.816;2024-01-07T01:38:06;99533.00;;;7.20
68939;BMP180;59064;45.294;11.816;2024-01-07T01:40:31;99528.40;;;7.20
68939;BMP180;59064;45.294;11.816;2024-01-07T01:42:57;99530.80;;;7.20
68939;BMP180;59064;45.294;11.816;2024-01-07T01:45:23;99534.60;;;7.20
68939;BMP180;59064;45.294;11.816;2024-01-07T01:47:49;99533.40;;;7.20
68939;BMP180;59064;45.294;11.816;2024-01-07T01:50:15;99531.80;;;7.20
68939;BMP180;59064;45.294;11.816;2024-01-07T01:52:44;99538.00;;;7.10
68939;BMP180;59064;45.294;11.816;2024-01-07T01:55:10;99544.60;;;7.10
68939;BMP180;59064;45.294;11.816;2024-01-07T01:57:36;99545.80;;;7.10
68939;BMP180;59064;45.294;11.816;2024-01-07T02:00:04;99542.80;;;7.10
68939;BMP180;59064;45.294;11.816;2024-01-07T02:02:31;99544.20;;;7.10
68939;BMP180;59064;45.294;11.816;2024-01-07T02:04:58;99542.40;;;7.10
68939;BMP180;59064;45.294;11.816;2024-01-07T02:07:24;99539.80;;;7.10
68939;BMP180;59064;45.294;11.816;2024-01-07T02:09:50;99538.00;;;7.10
68939;BMP180;59064;45.294;11.816;2024-01-07T02:12:15;99534.20;;;7.10
68939;BMP180;59064;45.294;11.816;2024-01-07T02:14:41;99526.00;;;7.10
68939;BMP180;59064;45.294;11.816;2024-01-07T02:17:07;99521.40;;;7.10
68939;BMP180;59064;45.294;11.816;2024-01-07T02:19:32;99528.40;;;7.10
68939;BMP180;59064;45.294;11.816;2024-01-07T02:21:57;99524.60;;;7.10
68939;BMP180;59064;45.294;11.816;2024-01-07T02:24:23;99521.80;;;7.10
68939;BMP180;59064;45.294;11.816;2024-01-07T02:26:49;99525.00;;;7.10
68939;BMP180;59064;45.294;11.816;2024-01-07T02:29:14;99527.00;;;7.12
68939;BMP180;59064;45.294;11.816;2024-01-07T02:31:40;99524.00;;;7.12
68939;BMP180;59064;45.294;11.816;2024-01-07T02:34:05;99528.20;;;7.12
68939;BMP180;59064;45.294;11.816;2024-01-07T02:36:30;99530.40;;;7.10
68939;BMP180;59064;45.294;11.816;2024-01-07T02:38:56;99523.80;;;7.10
68939;BMP180;59064;45.294;11.816;2024-01-07T02:41:21;99522.00;;;7.14
68939;BMP180;59064;45.294;11.816;2024-01-07T02:43:50;99517.20;;;7.14
68939;BMP180;59064;45.294;11.816;2024-01-07T02:46:16;99518.40;;;7.18
68939;BMP180;59064;45.294;11.816;2024-01-07T02:48:42;99521.60;;;7.12
68939;BMP180;59064;45.294;11.816;2024-01-07T02:51:08;99518.80;;;7.14
68939;BMP180;59064;45.294;11.816;2024-01-07T02:53:34;99524.40;;;7.14
68939;BMP180;59064;45.294;11.816;2024-01-07T02:55:59;99522.80;;;7.10
68939;BMP180;59064;45.294;11.816;2024-01-07T02:58:25;99520.60;;;7.10
68939;BMP180;59064;45.294;11.816;2024-01-07T03:00:51;99520.80;;;7.10
68939;BMP180;59064;45.294;11.816;2024-01-07T03:03:16;99520.00;;;7.10
68939;BMP180;59064;45.294;11.816;2024-01-07T03:05:42;99513.60;;;7.10
68939;BMP180;59064;45.294;11.816;2024-01-07T03:08:08;99517.80;;;7.10
68939;BMP180;59064;45.294;11.816;2024-01-07T03:10:33;99511.80;;;7.10
68939;BMP180;59064;45.294;11.816;2024-01-07T03:13:00;99505.80;;;7.10
68939;BMP180;59064;45.294;11.816;2024-01-07T03:15:26;99504.60;;;7.10
68939;BMP180;59064;45.294;11.816;2024-01-07T03:17:52;99504.20;;;7.10
68939;BMP180;59064;45.294;11.816;2024-01-07T03:20:17;99504.60;;;7.10
68939;BMP180;59064;45.294;11.816;2024-01-07T03:22:43;99502.80;;;7.10
68939;BMP180;59064;45.294;11.816;2024-01-07T03:25:08;99503.60;;;7.10
68939;BMP180;59064;45.294;11.816;2024-01-07T03:27:34;99504.60;;;7.10
68939;BMP180;59064;45.294;11.816;2024-01-07T03:30:00;99510.80;;;7.10
68939;BMP180;59064;45.294;11.816;2024-01-07T03:32:25;99512.20;;;7.10
68939;BMP180;59064;45.294;11.816;2024-01-07T03:34:51;99514.00;;;7.02
68939;BMP180;59064;45.294;11.816;2024-01-07T03:37:16;99520.80;;;7.08
68939;BMP180;59064;45.294;11.816;2024-01-07T03:39:43;99517.60;;;7.06
68939;BMP180;59064;45.294;11.816;2024-01-07T03:42:09;99517.40;;;7.02
68939;BMP180;59064;45.294;11.816;2024-01-07T03:44:38;99517.60;;;7.00
68939;BMP180;59064;45.294;11.816;2024-01-07T03:47:04;99525.80;;;7.02
68939;BMP180;59064;45.294;11.816;2024-01-07T03:49:30;99528.20;;;7.00
68939;BMP180;59064;45.294;11.816;2024-01-07T03:51:56;99528.20;;;7.00
68939;BMP180;59064;45.294;11.816;2024-01-07T03:54:21;99533.00;;;7.00
68939;BMP180;59064;45.294;11.816;2024-01-07T03:56:47;99536.60;;;7.00
68939;BMP180;59064;45.294;11.816;2024-01-07T03:59:12;99540.80;;;7.00
68939;BMP180;59064;45.294;11.816;2024-01-07T04:01:38;99535.80;;;7.00
68939;BMP180;59064;45.294;11.816;2024-01-07T04:04:03;99534.20;;;7.00
68939;BMP180;59064;45.294;11.816;2024-01-07T04:06:29;99530.20;;;7.00
68939;BMP180;59064;45.294;11.816;2024-01-07T04:08:54;99529.20;;;7.00
68939;BMP180;59064;45.294;11.816;2024-01-07T04:11:20;99534.60;;;7.02
68939;BMP180;59064;45.294;11.816;2024-01-07T04:13:45;99534.00;;;7.04
68939;BMP180;59064;45.294;11.816;2024-01-07T04:16:20;99537.20;;;7.10
68939;BMP180;59064;45.294;11.816;2024-01-07T04:18:47;99532.40;;;7.10
68939;BMP180;59064;45.294;11.816;2024-01-07T04:21:12;99530.80;;;7.10
68939;BMP180;59064;45.294;11.816;2024-01-07T04:23:39;99533.40;;;7.06
68939;BMP180;59064;45.294;11.816;2024-01-07T04:26:08;99533.80;;;7.08
68939;BMP180;59064;45.294;11.816;2024-01-07T04:28:33;99532.60;;;7.10
68939;BMP180;59064;45.294;11.816;2024-01-07T04:30:59;99534.20;;;7.10
68939;BMP180;59064;45.294;11.816;2024-01-07T04:33:24;99533.00;;;7.10
68939;BMP180;59064;45.294;11.816;2024-01-07T04:35:50;99534.60;;;7.10
68939;BMP180;59064;45.294;11.816;2024-01-07T04:38:15;99534.60;;;7.10
68939;BMP180;59064;45.294;11.816;2024-01-07T04:40:41;99528.40;;;7.10
68939;BMP180;59064;45.294;11.816;2024-01-07T04:43:06;99528.00;;;7.10
68939;BMP180;59064;45.294;11.816;2024-01-07T04:45:31;99539.80;;;7.10
68939;BMP180;59064;45.294;11.816;2024-01-07T04:47:57;99541.40;;;7.10
68939;BMP180;59064;45.294;11.816;2024-01-07T04:50:22;99541.80;;;7.10
68939;BMP180;59064;45.294;11.816;2024-01-07T04:52:48;99542.40;;;7.10
68939;BMP180;59064;45.294;11.816;2024-01-07T04:55:13;99544.40;;;7.18
68939;BMP180;59064;45.294;11.816;2024-01-07T04:57:39;99548.00;;;7.20
68939;BMP180;59064;45.294;11.816;2024-01-07T05:00:05;99546.80;;;7.20
68939;BMP180;59064;45.294;11.816;2024-01-07T05:02:31;99546.20;;;7.20
68939;BMP180;59064;45.294;11.816;2024-01-07T05:04:57;99551.00;;;7.20
68939;BMP180;59064;45.294;11.816;2024-01-07T05:07:23;99546.80;;;7.18
68939;BMP180;59064;45.294;11.816;2024-01-07T05:09:49;99550.40;;;7.20
68939;BMP180;59064;45.294;11.816;2024-01-07T05:12:14;99549.20;;;7.20
68939;BMP180;59064;45.294;11.816;2024-01-07T05:14:40;99546.20;;;7.20
68939;BMP180;59064;45.294;11.816;2024-01-07T05:17:08;99547.60;;;7.20
68939;BMP180;59064;45.294;11.816;2024-01-07T05:19:33;99548.80;;;7.20
68939;BMP180;59064;45.294;11.816;2024-01-07T05:21:59;99552.60;;;7.20
68939;BMP180;59064;45.294;11.816;2024-01-07T05:24:25;99552.60;;;7.20
68939;BMP180;59064;45.294;11.816;2024-01-07T05:26:50;99553.60;;;7.20
68939;BMP180;59064;45.294;11.816;2024-01-07T05:29:16;99557.00;;;7.20
68939;BMP180;59064;45.294;11.816;2024-01-07T05:31:41;99561.60;;;7.20
68939;BMP180;59064;45.294;11.816;2024-01-07T05:34:07;99563.20;;;7.20
68939;BMP180;59064;45.294;11.816;2024-01-07T05:36:33;99567.00;;;7.20
68939;BMP180;59064;45.294;11.816;2024-01-07T05:38:58;99560.80;;;7.18
68939;BMP180;59064;45.294;11.816;2024-01-07T05:41:24;99564.60;;;7.20
68939;BMP180;59064;45.294;11.816;2024-01-07T05:43:49;99564.60;;;7.18
68939;BMP180;59064;45.294;11.816;2024-01-07T05:46:15;99563.20;;;7.18
68939;BMP180;59064;45.294;11.816;2024-01-07T05:48:43;99561.20;;;7.20
68939;BMP180;59064;45.294;11.816;2024-01-07T05:51:12;99562.80;;;7.10
68939;BMP180;59064;45.294;11.816;2024-01-07T05:53:38;99564.20;;;7.10
68939;BMP180;59064;45.294;11.816;2024-01-07T05:56:03;99558.00;;;7.10
68939;BMP180;59064;45.294;11.816;2024-01-07T05:58:29;99555.60;;;7.10
68939;BMP180;59064;45.294;11.816;2024-01-07T06:00:55;99563.20;;;7.10
68939;BMP180;59064;45.294;11.816;2024-01-07T06:03:21;99565.60;;;7.10
68939;BMP180;59064;45.294;11.816;2024-01-07T06:05:46;99569.40;;;7.10
68939;BMP180;59064;45.294;11.816;2024-01-07T06:08:12;99571.20;;;7.10
68939;BMP180;59064;45.294;11.816;2024-01-07T06:10:39;99570.80;;;7.10
68939;BMP180;59064;45.294;11.816;2024-01-07T06:13:04;99572.40;;;7.16
68939;BMP180;59064;45.294;11.816;2024-01-07T06:15:30;99575.00;;;7.20
68939;BMP180;59064;45.294;11.816;2024-01-07T06:17:55;99580.20;;;7.20
68939;BMP180;59064;45.294;11.816;2024-01-07T06:20:21;99579.60;;;7.20
68939;BMP180;59064;45.294;11.816;2024-01-07T06:22:47;99580.20;;;7.20
68939;BMP180;59064;45.294;11.816;2024-01-07T06:25:13;99585.00;;;7.20
68939;BMP180;59064;45.294;11.816;2024-01-07T06:27:39;99581.20;;;7.20
68939;BMP180;59064;45.294;11.816;2024-01-07T06:30:05;99589.00;;;7.20
68939;BMP180;59064;45.294;11.816;2024-01-07T06:32:31;99586.00;;;7.20
68939;BMP180;59064;45.294;11.816;2024-01-07T06:35:00;99587.20;;;7.20
68939;BMP180;59064;45.294;11.816;2024-01-07T06:37:25;99591.40;;;7.20
68939;BMP180;59064;45.294;11.816;2024-01-07T06:39:54;99593.40;;;7.20
68939;BMP180;59064;45.294;11.816;2024-01-07T06:42:20;99596.20;;;7.20
68939;BMP180;59064;45.294;11.816;2024-01-07T06:44:45;99604.20;;;7.20
68939;BMP180;59064;45.294;11.816;2024-01-07T06:47:11;99604.60;;;7.20
68939;BMP180;59064;45.294;11.816;2024-01-07T06:49:36;99611.60;;;7.22
68939;BMP180;59064;45.294;11.816;2024-01-07T06:52:01;99614.60;;;7.24
68939;BMP180;59064;45.294;11.816;2024-01-07T06:54:27;99621.20;;;7.28
68939;BMP180;59064;45.294;11.816;2024-01-07T06:56:52;99627.80;;;7.30
68939;BMP180;59064;45.294;11.816;2024-01-07T06:59:18;99631.80;;;7.28
68939;BMP180;59064;45.294;11.816;2024-01-07T07:01:43;99631.80;;;7.26
68939;BMP180;59064;45.294;11.816;2024-01-07T07:04:10;99640.60;;;7.30
68939;BMP180;59064;45.294;11.816;2024-01-07T07:06:35;99639.60;;;7.30
68939;BMP180;59064;45.294;11.816;2024-01-07T07:09:01;99637.60;;;7.30
68939;BMP180;59064;45.294;11.816;2024-01-07T07:11:26;99642.40;;;7.30
68939;BMP180;59064;45.294;11.816;2024-01-07T07:13:52;99639.60;;;7.30
68939;BMP180;59064;45.294;11.816;2024-01-07T07:16:17;99639.40;;;7.28
68939;BMP180;59064;45.294;11.816;2024-01-07T07:18:43;99640.40;;;7.26
68939;BMP180;59064;45.294;11.816;2024-01-07T07:21:08;99644.40;;;7.20
68939;BMP180;59064;45.294;11.816;2024-01-07T07:23:33;99643.80;;;7.20
68939;BMP180;59064;45.294;11.816;2024-01-07T07:25:59;99645.60;;;7.20
68939;BMP180;59064;45.294;11.816;2024-01-07T07:28:24;99649.80;;;7.20
68939;BMP180;59064;45.294;11.816;2024-01-07T07:30:50;99649.20;;;7.20
68939;BMP180;59064;45.294;11.816;2024-01-07T07:33:15;99646.20;;;7.20
68939;BMP180;59064;45.294;11.816;2024-01-07T07:35:41;99651.40;;;7.20
68939;BMP180;59064;45.294;11.816;2024-01-07T07:38:07;99655.00;;;7.20
68939;BMP180;59064;45.294;11.816;2024-01-07T07:40:33;99657.60;;;7.20
68939;BMP180;59064;45.294;11.816;2024-01-07T07:42:58;99663.80;;;7.12
68939;BMP180;59064;45.294;11.816;2024-01-07T07:45:24;99672.40;;;7.10
68939;BMP180;59064;45.294;11.816;2024-01-07T07:47:49;99677.20;;;7.10
68939;BMP180;59064;45.294;11.816;2024-01-07T07:50:15;99680.80;;;7.10
68939;BMP180;59064;45.294;11.816;2024-01-07T07:52:44;99681.80;;;7.10
68939;BMP180;59064;45.294;11.816;2024-01-07T07:55:10;99685.40;;;7.10
68939;BMP180;59064;45.294;11.816;2024-01-07T07:57:36;99686.20;;;7.10
68939;BMP180;59064;45.294;11.816;2024-01-07T08:00:07;99687.40;;;7.06
68939;BMP180;59064;45.294;11.816;2024-01-07T08:02:32;99692.80;;;7.00
68939;BMP180;59064;45.294;11.816;2024-01-07T08:04:58;99697.60;;;7.00
68939;BMP180;59064;45.294;11.816;2024-01-07T08:07:24;99695.80;;;7.00
68939;BMP180;59064;45.294;11.816;2024-01-07T08:09:50;99696.20;;;7.00
68939;BMP180;59064;45.294;11.816;2024-01-07T08:12:16;99698.40;;;7.00
68939;BMP180;59064;45.294;11.816;2024-01-07T08:14:41;99696.60;;;7.00
68939;BMP180;59064;45.294;11.816;2024-01-07T08:17:07;99697.60;;;7.00
68939;BMP180;59064;45.294;11.816;2024-01-07T08:19:33;99696.20;;;7.00
68939;BMP180;59064;45.294;11.816;2024-01-07T08:21:58;99694.00;;;7.00
68939;BMP180;59064;45.294;11.816;2024-01-07T08:24:24;99696.20;;;7.00
68939;BMP180;59064;45.294;11.816;2024-01-07T08:26:50;99696.80;;;7.00
68939;BMP180;59064;45.294;11.816;2024-01-07T08:29:15;99697.00;;;7.00
68939;BMP180;59064;45.294;11.816;2024-01-07T08:31:41;99697.20;;;7.00
68939;BMP180;59064;45.294;11.816;2024-01-07T08:34:08;99693.80;;;7.00
68939;BMP180;59064;45.294;11.816;2024-01-07T08:36:35;99697.20;;;7.00
68939;BMP180;59064;45.294;11.816;2024-01-07T08:39:00;99699.60;;;7.00
68939;BMP180;59064;45.294;11.816;2024-01-07T08:41:27;99698.20;;;7.00
68939;BMP180;59064;45.294;11.816;2024-01-07T08:43:53;99701.20;;;7.00
68939;BMP180;59064;45.294;11.816;2024-01-07T08:46:21;99696.00;;;7.00
68939;BMP180;59064;45.294;11.816;2024-01-07T08:48:47;99699.60;;;7.00
68939;BMP180;59064;45.294;11.816;2024-01-07T08:51:13;99707.20;;;7.00
68939;BMP180;59064;45.294;11.816;2024-01-07T08:53:40;99708.60;;;7.00
68939;BMP180;59064;45.294;11.816;2024-01-07T08:56:06;99714.80;;;7.00
68939;BMP180;59064;45.294;11.816;2024-01-07T08:58:32;99720.20;;;7.00
68939;BMP180;59064;45.294;11.816;2024-01-07T09:00:58;99723.80;;;7.00
68939;BMP180;59064;45.294;11.816;2024-01-07T09:03:24;99724.80;;;7.00
68939;BMP180;59064;45.294;11.816;2024-01-07T09:05:49;99725.00;;;7.00
68939;BMP180;59064;45.294;11.816;2024-01-07T09:08:15;99723.80;;;7.10
68939;BMP180;59064;45.294;11.816;2024-01-07T09:10:41;99724.80;;;7.10
68939;BMP180;59064;45.294;11.816;2024-01-07T09:13:07;99725.40;;;7.10
68939;BMP180;59064;45.294;11.816;2024-01-07T09:15:32;99731.80;;;7.10
68939;BMP180;59064;45.294;11.816;2024-01-07T09:17:58;99735.60;;;7.20
68939;BMP180;59064;45.294;11.816;2024-01-07T09:20:24;99738.20;;;7.20
68939;BMP180;59064;45.294;11.816;2024-01-07T09:22:50;99739.40;;;7.20
68939;BMP180;59064;45.294;11.816;2024-01-07T09:25:15;99742.60;;;7.20
68939;BMP180;59064;45.294;11.816;2024-01-07T09:27:42;99748.40;;;7.22
68939;BMP180;59064;45.294;11.816;2024-01-07T09:30:09;99745.80;;;7.30
68939;BMP180;59064;45.294;11.816;2024-01-07T09:32:40;99747.20;;;7.30
68939;BMP180;59064;45.294;11.816;2024-01-07T09:35:06;99751.00;;;7.30
68939;BMP180;59064;45.294;11.816;2024-01-07T09:37:32;99746.60;;;7.30
68939;BMP180;59064;45.294;11.816;2024-01-07T09:39:57;99754.60;;;7.30
68939;BMP180;59064;45.294;11.816;2024-01-07T09:42:23;99752.00;;;7.30
68939;BMP180;59064;45.294;11.816;2024-01-07T09:44:50;99753.20;;;7.30
68939;BMP180;59064;45.294;11.816;2024-01-07T09:47:16;99753.20;;;7.30
68939;BMP180;59064;45.294;11.816;2024-01-07T09:49:43;99750.00;;;7.30
68939;BMP180;59064;45.294;11.816;2024-01-07T09:52:11;99749.20;;;7.30
68939;BMP180;59064;45.294;11.816;2024-01-07T09:54:38;99752.00;;;7.30
68939;BMP180;59064;45.294;11.816;2024-01-07T09:57:07;99759.20;;;7.30
68939;BMP180;59064;45.294;11.816;2024-01-07T09:59:36;99762.60;;;7.30
68939;BMP180;59064;45.294;11.816;2024-01-07T10:02:03;99766.60;;;7.30
68939;BMP180;59064;45.294;11.816;2024-01-07T10:04:29;99761.20;;;7.34
68939;BMP180;59064;45.294;11.816;2024-01-07T10:06:58;99767.60;;;7.38
68939;BMP180;59064;45.294;11.816;2024-01-07T10:09:33;99767.60;;;7.40
68939;BMP180;59064;45.294;11.816;2024-01-07T10:11:59;99768.40;;;7.40
68939;BMP180;59064;45.294;11.816;2024-01-07T10:14:26;99773.80;;;7.40
68939;BMP180;59064;45.294;11.816;2024-01-07T10:16:52;99772.20;;;7.40
68939;BMP180;59064;45.294;11.816;2024-01-07T10:19:20;99765.60;;;7.40
68939;BMP180;59064;45.294;11.816;2024-01-07T10:21:46;99763.40;;;7.50
68939;BMP180;59064;45.294;11.816;2024-01-07T10:24:12;99759.00;;;7.50
68939;BMP180;59064;45.294;11.816;2024-01-07T10:26:39;99760.60;;;7.50
68939;BMP180;59064;45.294;11.816;2024-01-07T10:29:07;99756.60;;;7.50
68939;BMP180;59064;45.294;11.816;2024-01-07T10:31:37;99753.80;;;7.50
68939;BMP180;59064;45.294;11.816;2024-01-07T10:34:07;99756.60;;;7.50
68939;BMP180;59064;45.294;11.816;2024-01-07T10:36:34;99758.40;;;7.50
68939;BMP180;59064;45.294;11.816;2024-01-07T10:38:59;99755.40;;;7.60
68939;BMP180;59064;45.294;11.816;2024-01-07T10:41:25;99754.40;;;7.50
68939;BMP180;59064;45.294;11.816;2024-01-07T10:43:52;99756.20;;;7.50
68939;BMP180;59064;45.294;11.816;2024-01-07T10:46:18;99752.20;;;7.50
68939;BMP180;59064;45.294;11.816;2024-01-07T10:49:19;99757.00;;;7.50
68939;BMP180;59064;45.294;11.816;2024-01-07T10:54:31;99755.40;;;7.50
68939;BMP180;59064;45.294;11.816;2024-01-07T10:57:13;99758.00;;;7.46
68939;BMP180;59064;45.294;11.816;2024-01-07T10:59:41;99761.00;;;7.50
68939;BMP180;59064;45.294;11.816;2024-01-07T11:02:09;99759.00;;;7.50
68939;BMP180;59064;45.294;11.816;2024-01-07T11:07:29;99766.00;;;7.60
68939;BMP180;59064;45.294;11.816;2024-01-07T11:12:34;99755.20;;;7.60
68939;BMP180;59064;45.294;11.816;2024-01-07T11:15:00;99749.80;;;7.60
68939;BMP180;59064;45.294;11.816;2024-01-07T11:19:59;99749.80;;;7.60
68939;BMP180;59064;45.294;11.816;2024-01-07T11:22:26;99748.00;;;7.60
68939;BMP180;59064;45.294;11.816;2024-01-07T11:25:01;99740.00;;;7.54
68939;BMP180;59064;45.294;11.816;2024-01-07T11:27:31;99741.00;;;7.50
68939;BMP180;59064;45.294;11.816;2024-01-07T11:30:05;99733.80;;;7.50
68939;BMP180;59064;45.294;11.816;2024-01-07T11:32:35;99733.60;;;7.50
68939;BMP180;59064;45.294;11.816;2024-01-07T11:35:01;99730.40;;;7.50
68939;BMP180;59064;45.294;11.816;2024-01-07T11:37:28;99728.60;;;7.50
68939;BMP180;59064;45.294;11.816;2024-01-07T11:39:57;99724.00;;;7.50
68939;BMP180;59064;45.294;11.816;2024-01-07T11:42:24;99723.80;;;7.50
68939;BMP180;59064;45.294;11.816;2024-01-07T11:44:54;99722.20;;;7.50
68939;BMP180;59064;45.294;11.816;2024-01-07T11:47:21;99732.00;;;7.48
68939;BMP180;59064;45.294;11.816;2024-01-07T11:49:47;99731.20;;;7.48
68939;BMP180;59064;45.294;11.816;2024-01-07T11:52:14;99736.60;;;7.50
68939;BMP180;59064;45.294;11.816;2024-01-07T11:54:41;99739.20;;;7.50
68939;BMP180;59064;45.294;11.816;2024-01-07T11:57:07;99736.80;;;7.50
68939;BMP180;59064;45.294;11.816;2024-01-07T11:59:34;99737.80;;;7.50
68939;BMP180;59064;45.294;11.816;2024-01-07T12:02:00;99736.00;;;7.50
68939;BMP180;59064;45.294;11.816;2024-01-07T12:04:26;99730.60;;;7.50
68939;BMP180;59064;45.294;11.816;2024-01-07T12:06:51;99732.00;;;7.50
68939;BMP180;59064;45.294;11.816;2024-01-07T12:09:17;99728.80;;;7.58
68939;BMP180;59064;45.294;11.816;2024-01-07T12:11:43;99732.00;;;7.58
68939;BMP180;59064;45.294;11.816;2024-01-07T12:14:09;99729.60;;;7.60
68939;BMP180;59064;45.294;11.816;2024-01-07T12:16:37;99732.00;;;7.58
68939;BMP180;59064;45.294;11.816;2024-01-07T12:19:03;99735.80;;;7.58
68939;BMP180;59064;45.294;11.816;2024-01-07T12:21:28;99738.60;;;7.54
68939;BMP180;59064;45.294;11.816;2024-01-07T12:23:55;99736.60;;;7.58
68939;BMP180;59064;45.294;11.816;2024-01-07T12:26:29;99738.80;;;7.60
68939;BMP180;59064;45.294;11.816;2024-01-07T12:28:55;99742.20;;;7.60
68939;BMP180;59064;45.294;11.816;2024-01-07T12:31:23;99740.00;;;7.60
68939;BMP180;59064;45.294;11.816;2024-01-07T12:33:49;99747.60;;;7.60
68939;BMP180;59064;45.294;11.816;2024-01-07T12:36:14;99747.00;;;7.60
68939;BMP180;59064;45.294;11.816;2024-01-07T12:38:40;99745.60;;;7.60
68939;BMP180;59064;45.294;11.816;2024-01-07T12:41:06;99745.20;;;7.60
68939;BMP180;59064;45.294;11.816;2024-01-07T12:43:32;99742.00;;;7.60
68939;BMP180;59064;45.294;11.816;2024-01-07T12:45:58;99745.60;;;7.60
68939;BMP180;59064;45.294;11.816;2024-01-07T12:48:30;99746.00;;;7.66
68939;BMP180;59064;45.294;11.816;2024-01-07T12:50:56;99748.80;;;7.70
68939;BMP180;59064;45.294;11.816;2024-01-07T12:53:22;99750.60;;;7.68
68939;BMP180;59064;45.294;11.816;2024-01-07T12:55:48;99747.80;;;7.70
68939;BMP180;59064;45.294;11.816;2024-01-07T12:58:13;99749.40;;;7.70
68939;BMP180;59064;45.294;11.816;2024-01-07T13:00:39;99753.20;;;7.70
68939;BMP180;59064;45.294;11.816;2024-01-07T13:03:06;99750.40;;;7.70
68939;BMP180;59064;45.294;11.816;2024-01-07T13:05:33;99750.20;;;7.70
68939;BMP180;59064;45.294;11.816;2024-01-07T13:07:59;99755.60;;;7.70
68939;BMP180;59064;45.294;11.816;2024-01-07T13:10:25;99752.00;;;7.70
68939;BMP180;59064;45.294;11.816;2024-01-07T13:12:50;99752.40;;;7.70
68939;BMP180;59064;45.294;11.816;2024-01-07T13:15:16;99751.80;;;7.70
68939;BMP180;59064;45.294;11.816;2024-01-07T13:17:43;99757.20;;;7.70
68939;BMP180;59064;45.294;11.816;2024-01-07T13:20:08;99753.20;;;7.70
68939;BMP180;59064;45.294;11.816;2024-01-07T13:22:37;99756.80;;;7.70
68939;BMP180;59064;45.294;11.816;2024-01-07T13:25:05;99754.80;;;7.70
68939;BMP180;59064;45.294;11.816;2024-01-07T13:27:30;99762.60;;;7.70
68939;BMP180;59064;45.294;11.816;2024-01-07T13:29:56;99764.20;;;7.80
68939;BMP180;59064;45.294;11.816;2024-01-07T13:32:22;99762.40;;;7.80
68939;BMP180;59064;45.294;11.816;2024-01-07T13:34:47;99766.60;;;7.80
68939;BMP180;59064;45.294;11.816;2024-01-07T13:37:13;99767.40;;;7.80
68939;BMP180;59064;45.294;11.816;2024-01-07T13:39:38;99765.00;;;7.80
68939;BMP180;59064;45.294;11.816;2024-01-07T13:42:05;99768.00;;;7.80
68939;BMP180;59064;45.294;11.816;2024-01-07T13:44:30;99771.00;;;7.80
68939;BMP180;59064;45.294;11.816;2024-01-07T13:46:56;99773.20;;;7.80
68939;BMP180;59064;45.294;11.816;2024-01-07T13:49:22;99773.80;;;7.80
68939;BMP180;59064;45.294;11.816;2024-01-07T13:51:47;99770.80;;;7.80
68939;BMP180;59064;45.294;11.816;2024-01-07T13:54:13;99768.80;;;7.80
68939;BMP180;59064;45.294;11.816;2024-01-07T13:56:43;99771.40;;;7.80
68939;BMP180;59064;45.294;11.816;2024-01-07T13:59:10;99769.20;;;7.82
68939;BMP180;59064;45.294;11.816;2024-01-07T14:01:36;99773.20;;;7.80
68939;BMP180;59064;45.294;11.816;2024-01-07T14:04:04;99774.00;;;7.80
68939;BMP180;59064;45.294;11.816;2024-01-07T14:06:30;99772.20;;;7.80
68939;BMP180;59064;45.294;11.816;2024-01-07T14:08:56;99772.40;;;7.80
68939;BMP180;59064;45.294;11.816;2024-01-07T14:11:21;99775.20;;;7.80
68939;BMP180;59064;45.294;11.816;2024-01-07T14:13:47;99781.00;;;7.80